createdAt,value
2023-03-04T00:01:28.991Z,101778.94
2023-03-04T00:03:55.783Z,101784.53
2023-03-04T00:06:22.655Z,101790.50
2023-03-04T00:08:49.476Z,101785.91
2023-03-04T00:11:16.471Z,101782.84
2023-03-04T00:13:43.194Z,101781.88
2023-03-04T00:16:09.884Z,101778.94
2023-03-04T00:18:36.806Z,101783.13
2023-03-04T00:21:03.899Z,101794.81
2023-03-04T00:23:30.657Z,101791.22
2023-03-04T00:25:57.483Z,101787.69
2023-03-04T00:28:24.617Z,101783.41
2023-03-04T00:30:51.824Z,101784.38
2023-03-04T00:33:18.685Z,101786.06
2023-03-04T00:35:45.496Z,101791.59
2023-03-04T00:38:12.338Z,101784.50
2023-03-04T00:40:39.094Z,101794.78
2023-03-04T00:43:05.877Z,101788.78
2023-03-04T00:45:32.603Z,101796.16
2023-03-04T00:47:59.414Z,101782.44
2023-03-04T00:50:26.167Z,101798.00
2023-03-04T00:52:52.901Z,101796.81
2023-03-04T00:55:19.706Z,101793.03
2023-03-04T00:57:46.445Z,101796.75
2023-03-04T01:00:14.522Z,101796.69
2023-03-04T01:02:41.403Z,101787.91
2023-03-04T01:05:09.094Z,101794.34
2023-03-04T01:07:38.193Z,101783.50
2023-03-04T01:10:06.583Z,101788.47
2023-03-04T01:12:33.318Z,101777.47
2023-03-04T01:15:00.250Z,101778.03
2023-03-04T01:17:27.079Z,101775.78
2023-03-04T01:19:53.883Z,101774.81
2023-03-04T01:22:23.709Z,101768.53
2023-03-04T01:24:50.568Z,101772.94
2023-03-04T01:27:17.281Z,101763.06
2023-03-04T01:29:44.128Z,101761.84
2023-03-04T01:32:10.951Z,101771.47
2023-03-04T01:34:37.766Z,101761.97
2023-03-04T01:37:04.793Z,101757.28
2023-03-04T01:39:31.717Z,101756.69
2023-03-04T01:41:58.869Z,101760.59
2023-03-04T01:44:25.700Z,101746.78
2023-03-04T01:46:54.992Z,101754.16
2023-03-04T01:49:22.984Z,101753.38
2023-03-04T01:51:52.907Z,101752.41
2023-03-04T01:54:22.076Z,101760.53
2023-03-04T01:56:51.561Z,101752.34
2023-03-04T01:59:23.109Z,101750.09
2023-03-04T02:01:53.968Z,101749.75
2023-03-04T02:04:26.369Z,101750.25
2023-03-04T02:06:53.367Z,101738.78
2023-03-04T02:09:21.632Z,101738.94
2023-03-04T02:11:50.398Z,101739.75
2023-03-04T02:14:19.517Z,101739.59
2023-03-04T02:16:46.936Z,101742.00
2023-03-04T02:19:39.714Z,101735.44
2023-03-04T02:22:06.872Z,101741.22
2023-03-04T02:24:46.175Z,101734.16
2023-03-04T02:27:13.162Z,101740.44
2023-03-04T02:29:40.770Z,101732.88
2023-03-04T02:32:12.429Z,101741.88
2023-03-04T02:34:46.159Z,101731.69
2023-03-04T02:37:13.901Z,101728.81
2023-03-04T02:39:47.480Z,101722.72
2023-03-04T02:42:14.454Z,101719.13
2023-03-04T02:44:46.469Z,101719.69
2023-03-04T02:47:17.957Z,101711.63
2023-03-04T02:49:45.332Z,101715.91
2023-03-04T02:52:19.703Z,101698.38
2023-03-04T02:54:46.591Z,101696.16
2023-03-04T02:57:15.060Z,101698.88
2023-03-04T02:59:45.928Z,101697.38
2023-03-04T03:02:17.670Z,101702.69
2023-03-04T03:04:44.522Z,101698.84
2023-03-04T03:07:13.966Z,101699.31
2023-03-04T03:09:41.380Z,101694.28
2023-03-04T03:12:08.088Z,101703.88
2023-03-04T03:14:34.856Z,101701.34
2023-03-04T03:17:03.776Z,101700.72
2023-03-04T03:19:31.716Z,101698.41
2023-03-04T03:22:00.099Z,101693.56
2023-03-04T03:24:27.183Z,101706.16
2023-03-04T03:26:54.019Z,101698.09
2023-03-04T03:29:20.931Z,101690.31
2023-03-04T03:31:47.740Z,101691.13
2023-03-04T03:34:14.676Z,101688.16
2023-03-04T03:36:41.858Z,101682.59
2023-03-04T03:39:08.569Z,101684.06
2023-03-04T03:41:35.278Z,101684.41
2023-03-04T03:44:02.001Z,101685.41
2023-03-04T03:46:29.905Z,101686.78
2023-03-04T03:48:56.775Z,101681.00
2023-03-04T03:51:23.533Z,101675.13
2023-03-04T03:53:50.246Z,101670.81
2023-03-04T03:56:16.982Z,101680.16
2023-03-04T03:58:43.738Z,101680.34
2023-03-04T04:01:10.572Z,101683.47
2023-03-04T04:03:37.419Z,101680.34
2023-03-04T04:06:04.241Z,101689.31
2023-03-04T04:08:31.147Z,101686.63
2023-03-04T04:10:57.892Z,101690.84
2023-03-04T04:13:24.741Z,101695.78
2023-03-04T04:15:52.381Z,101687.88
2023-03-04T04:18:19.320Z,101690.31
2023-03-04T04:20:46.728Z,101688.97
2023-03-04T04:23:13.470Z,101688.22
2023-03-04T04:25:40.280Z,101690.91
2023-03-04T04:28:07.452Z,101693.91
2023-03-04T04:30:34.630Z,101685.78
2023-03-04T04:33:01.984Z,101697.84
2023-03-04T04:35:28.869Z,101706.28
2023-03-04T04:37:55.602Z,101697.16
2023-03-04T04:40:22.406Z,101685.78
2023-03-04T04:42:49.391Z,101702.59
2023-03-04T04:45:17.114Z,101689.88
2023-03-04T04:47:44.243Z,101698.97
2023-03-04T04:50:11.704Z,101697.28
2023-03-04T04:52:38.418Z,101692.25
2023-03-04T04:55:05.564Z,101698.72
2023-03-04T04:57:33.588Z,101705.44
2023-03-04T05:00:00.372Z,101706.63
2023-03-04T05:02:27.091Z,101700.91
2023-03-04T05:04:53.829Z,101704.50
2023-03-04T05:07:20.639Z,101701.63
2023-03-04T05:09:47.404Z,101702.81
2023-03-04T05:12:14.145Z,101705.69
2023-03-04T05:14:40.934Z,101708.44
2023-03-04T05:17:07.696Z,101720.16
2023-03-04T05:19:34.411Z,101711.19
2023-03-04T05:22:01.310Z,101700.88
2023-03-04T05:24:28.061Z,101707.59
2023-03-04T05:26:54.768Z,101702.19
2023-03-04T05:29:21.691Z,101710.84
2023-03-04T05:31:48.379Z,101703.31
2023-03-04T05:34:15.214Z,101712.03
2023-03-04T05:36:41.965Z,101713.13
2023-03-04T05:39:08.810Z,101714.91
2023-03-04T05:41:35.587Z,101718.38
2023-03-04T05:44:02.484Z,101707.47
2023-03-04T05:46:30.745Z,101727.72
2023-03-04T05:48:59.112Z,101728.34
2023-03-04T05:51:25.823Z,101728.81
2023-03-04T05:53:52.543Z,101734.22
2023-03-04T05:56:20.403Z,101735.41
2023-03-04T05:58:47.643Z,101741.41
2023-03-04T06:01:14.971Z,101737.22
2023-03-04T06:03:43.514Z,101736.34
2023-03-04T06:06:10.705Z,101742.09
2023-03-04T06:08:37.568Z,101736.47
2023-03-04T06:11:05.602Z,101737.53
2023-03-04T06:13:34.827Z,101733.63
2023-03-04T06:16:01.770Z,101736.59
2023-03-04T06:18:29.128Z,101737.22
2023-03-04T06:20:58.570Z,101737.66
2023-03-04T06:23:26.295Z,101742.09
2023-03-04T06:25:54.744Z,101742.59
2023-03-04T06:28:21.786Z,101745.72
2023-03-04T06:30:48.605Z,101748.47
2023-03-04T06:33:15.296Z,101753.97
2023-03-04T06:35:42.080Z,101759.75
2023-03-04T06:38:08.927Z,101764.16
2023-03-04T06:40:35.938Z,101769.00
2023-03-04T06:43:02.658Z,101771.03
2023-03-04T06:45:29.434Z,101771.75
2023-03-04T06:47:56.263Z,101773.56
2023-03-04T06:50:23.001Z,101778.25
2023-03-04T06:52:50.075Z,101785.06
2023-03-04T06:55:16.861Z,101782.31
2023-03-04T06:57:43.648Z,101786.28
2023-03-04T07:00:11.076Z,101791.69
2023-03-04T07:02:37.865Z,101788.81
2023-03-04T07:05:04.984Z,101790.72
2023-03-04T07:07:31.721Z,101796.13
2023-03-04T07:09:58.704Z,101804.66
2023-03-04T07:12:31.627Z,101809.19
2023-03-04T07:14:58.403Z,101800.31
2023-03-04T07:17:25.148Z,101810.63
2023-03-04T07:19:52.055Z,101812.19
2023-03-04T07:22:18.859Z,101817.22
2023-03-04T07:24:45.628Z,101820.09
2023-03-04T07:27:12.573Z,101817.44
2023-03-04T07:29:39.352Z,101819.91
2023-03-04T07:32:10.421Z,101817.38
2023-03-04T07:34:37.506Z,101820.50
2023-03-04T07:37:04.293Z,101821.22
2023-03-04T07:39:31.148Z,101820.72
2023-03-04T07:41:58.019Z,101821.78
2023-03-04T07:44:27.494Z,101819.16
2023-03-04T07:46:54.272Z,101827.75
2023-03-04T07:49:22.210Z,101825.13
2023-03-04T07:51:49.040Z,101824.97
2023-03-04T07:54:16.011Z,101826.13
2023-03-04T07:56:43.368Z,101818.34
2023-03-04T07:59:10.166Z,101820.03
2023-03-04T08:01:37.857Z,101815.44
2023-03-04T08:04:06.684Z,101824.03
2023-03-04T08:06:33.824Z,101832.09
2023-03-04T08:09:05.829Z,101831.69
2023-03-04T08:11:33.968Z,101835.94
2023-03-04T08:14:00.739Z,101837.69
2023-03-04T08:16:27.920Z,101835.41
2023-03-04T08:18:57.800Z,101842.25
2023-03-04T08:21:26.629Z,101843.56
2023-03-04T08:23:54.420Z,101845.28
2023-03-04T08:26:30.352Z,101840.97
2023-03-04T08:28:58.050Z,101836.81
2023-03-04T08:31:25.087Z,101828.84
2023-03-04T08:33:52.949Z,101830.81
2023-03-04T08:36:20.718Z,101833.22
2023-03-04T08:38:47.692Z,101832.63
2023-03-04T08:41:15.495Z,101826.50
2023-03-04T08:43:42.775Z,101825.69
2023-03-04T08:46:09.538Z,101824.16
2023-03-04T08:48:38.097Z,101832.25
2023-03-04T08:51:10.030Z,101829.84
2023-03-04T08:53:37.977Z,101830.84
2023-03-04T08:56:05.569Z,101831.53
2023-03-04T08:58:32.369Z,101829.69
2023-03-04T09:01:01.030Z,101832.09
2023-03-04T09:03:28.696Z,101829.16
2023-03-04T09:05:56.010Z,101826.53
2023-03-04T09:08:23.201Z,101823.31
2023-03-04T09:10:53.107Z,101820.38
2023-03-04T09:13:20.005Z,101820.78
2023-03-04T09:15:49.172Z,101817.56
2023-03-04T09:18:16.540Z,101821.28
2023-03-04T09:20:44.297Z,101819.41
2023-03-04T09:23:11.463Z,101811.69
2023-03-04T09:25:38.985Z,101813.59
2023-03-04T09:28:06.970Z,101826.69
2023-03-04T09:30:35.180Z,101816.03
2023-03-04T09:33:02.104Z,101817.38
2023-03-04T09:35:32.571Z,101812.63
2023-03-04T09:38:00.146Z,101811.75
2023-03-04T09:40:48.949Z,101806.66
2023-03-04T09:43:22.500Z,101807.09
2023-03-04T09:45:55.733Z,101804.16
2023-03-04T09:48:24.939Z,101803.03
2023-03-04T09:50:59.530Z,101811.28
2023-03-04T09:53:44.055Z,101803.31
2023-03-04T09:56:12.156Z,101811.16
2023-03-04T09:58:50.991Z,101796.59
2023-03-04T10:01:25.529Z,101789.88
2023-03-04T10:04:01.901Z,101792.50
2023-03-04T10:06:31.256Z,101795.31
2023-03-04T10:09:06.245Z,101788.06
2023-03-04T10:11:44.606Z,101787.50
2023-03-04T10:14:34.128Z,101786.41
2023-03-04T10:17:10.202Z,101791.47
2023-03-04T10:19:52.864Z,101788.84
2023-03-04T10:22:22.718Z,101775.00
2023-03-04T10:24:49.603Z,101777.31
2023-03-04T10:27:20.003Z,101767.00
2023-03-04T10:29:48.980Z,101777.31
2023-03-04T10:32:19.045Z,101777.19
2023-03-04T10:34:46.249Z,101771.69
2023-03-04T10:37:13.205Z,101775.88
2023-03-04T10:39:43.008Z,101775.22
2023-03-04T10:42:15.984Z,101771.53
2023-03-04T10:44:51.157Z,101767.72
2023-03-04T10:47:17.991Z,101766.03
2023-03-04T10:49:56.126Z,101767.50
2023-03-04T10:52:46.264Z,101777.53
2023-03-04T10:55:22.231Z,101776.03
2023-03-04T10:57:55.688Z,101776.22
2023-03-04T11:00:27.248Z,101769.31
2023-03-04T11:03:27.945Z,101769.63
2023-03-04T11:06:25.358Z,101759.28
2023-03-04T11:08:59.347Z,101760.94
2023-03-04T11:11:31.209Z,101758.63
2023-03-04T11:14:08.632Z,101753.59
2023-03-04T11:16:35.525Z,101751.41
2023-03-04T11:19:16.705Z,101752.88
2023-03-04T11:21:44.270Z,101751.59
2023-03-04T11:24:27.777Z,101748.53
2023-03-04T11:27:03.880Z,101742.56
2023-03-04T11:29:42.238Z,101736.00
2023-03-04T11:32:39.840Z,101736.31
2023-03-04T11:35:28.148Z,101740.31
2023-03-04T11:38:17.592Z,101735.59
2023-03-04T11:40:57.923Z,101731.19
2023-03-04T11:43:42.737Z,101726.16
2023-03-04T11:46:25.815Z,101718.19
2023-03-04T11:50:00.306Z,101717.50
2023-03-04T11:52:42.011Z,101709.53
2023-03-04T11:55:18.414Z,101719.31
2023-03-04T11:57:57.738Z,101706.50
2023-03-04T12:00:58.849Z,101695.56
2023-03-04T12:03:57.430Z,101686.09
2023-03-04T12:06:53.987Z,101680.59
2023-03-04T12:09:35.617Z,101678.47
2023-03-04T12:12:20.938Z,101685.41
2023-03-04T12:15:16.856Z,101663.03
2023-03-04T12:17:58.714Z,101659.44
2023-03-04T12:20:53.190Z,101648.81
2023-03-04T12:23:38.386Z,101644.28
2023-03-04T12:26:40.872Z,101644.66
2023-03-04T12:29:27.804Z,101645.31
2023-03-04T12:32:00.650Z,101638.88
2023-03-04T12:34:39.006Z,101632.94
2023-03-04T12:37:30.481Z,101632.13
2023-03-04T12:40:06.896Z,101637.72
2023-03-04T12:42:54.522Z,101627.38
2023-03-04T12:45:42.196Z,101634.59
2023-03-04T12:48:33.459Z,101622.38
2023-03-04T12:51:55.704Z,101615.19
2023-03-04T12:54:37.309Z,101610.94
2023-03-04T12:57:06.876Z,101611.72
2023-03-04T12:59:43.144Z,101605.25
2023-03-04T13:02:34.813Z,101604.69
2023-03-04T13:05:25.326Z,101591.41
2023-03-04T13:08:19.582Z,101587.03
2023-03-04T13:10:46.458Z,101581.69
2023-03-04T13:13:37.209Z,101586.34
2023-03-04T13:16:40.809Z,101581.25
2023-03-04T13:19:45.374Z,101571.72
2023-03-04T13:22:33.672Z,101572.25
2023-03-04T13:25:22.052Z,101574.53
2023-03-04T13:27:51.899Z,101570.19
2023-03-04T13:30:34.540Z,101565.13
2023-03-04T13:33:13.653Z,101569.25
2023-03-04T13:35:49.500Z,101562.25
2023-03-04T13:38:29.006Z,101556.16
2023-03-04T13:41:21.850Z,101551.28
2023-03-04T13:43:55.730Z,101555.53
2023-03-04T13:46:27.470Z,101542.78
2023-03-04T13:49:01.385Z,101551.72
2023-03-04T13:51:41.310Z,101547.03
2023-03-04T13:54:13.715Z,101548.19
2023-03-04T13:56:40.988Z,101543.53
2023-03-04T13:59:07.671Z,101534.91
2023-03-04T14:01:55.860Z,101538.69
2023-03-04T14:04:22.820Z,101530.69
2023-03-04T14:06:51.559Z,101531.97
2023-03-04T14:09:21.122Z,101528.97
2023-03-04T14:11:49.341Z,101526.38
2023-03-04T14:14:20.831Z,101522.03
2023-03-04T14:16:50.293Z,101526.25
2023-03-04T14:19:29.570Z,101516.97
2023-03-04T14:21:57.496Z,101519.06
2023-03-04T14:24:24.878Z,101517.38
2023-03-04T14:27:13.455Z,101513.06
2023-03-04T14:29:40.804Z,101517.38
2023-03-04T14:32:08.098Z,101512.31
2023-03-04T14:34:38.351Z,101507.63
2023-03-04T14:37:31.393Z,101513.41
2023-03-04T14:40:00.773Z,101512.66
2023-03-04T14:42:39.470Z,101500.22
2023-03-04T14:45:07.312Z,101508.63
2023-03-04T14:47:46.145Z,101512.13
2023-03-04T14:50:17.096Z,101501.75
2023-03-04T14:53:04.306Z,101507.84
2023-03-04T14:55:31.164Z,101508.28
2023-03-04T14:58:10.104Z,101521.03
2023-03-04T15:00:41.024Z,101512.69
2023-03-04T15:03:19.317Z,101511.41
2023-03-04T15:05:48.632Z,101510.88
2023-03-04T15:08:52.157Z,101513.22
2023-03-04T15:11:26.114Z,101509.63
2023-03-04T15:13:58.056Z,101512.22
2023-03-04T15:16:28.224Z,101504.75
2023-03-04T15:19:02.204Z,101506.53
2023-03-04T15:21:34.775Z,101507.44
2023-03-04T15:24:03.710Z,101504.69
2023-03-04T15:26:37.564Z,101506.88
2023-03-04T15:29:13.899Z,101509.22
2023-03-04T15:31:42.102Z,101508.16
2023-03-04T15:34:14.046Z,101514.38
2023-03-04T15:36:41.134Z,101509.28
2023-03-04T15:39:12.661Z,101505.94
2023-03-04T15:41:39.546Z,101508.91
2023-03-04T15:44:06.714Z,101509.28
2023-03-04T15:46:33.802Z,101501.53
2023-03-04T15:49:00.715Z,101503.81
2023-03-04T15:51:27.929Z,101507.72
2023-03-04T15:53:57.595Z,101497.03
2023-03-04T15:56:31.684Z,101503.28
2023-03-04T15:59:11.812Z,101496.19
2023-03-04T16:01:40.381Z,101494.34
2023-03-04T16:04:15.334Z,101500.06
2023-03-04T16:06:44.582Z,101493.88
2023-03-04T16:09:14.859Z,101504.38
2023-03-04T16:11:45.602Z,101497.94
2023-03-04T16:14:14.441Z,101502.28
2023-03-04T16:16:43.840Z,101500.81
2023-03-04T16:19:10.660Z,101499.03
2023-03-04T16:21:37.533Z,101497.47
2023-03-04T16:24:05.098Z,101504.19
2023-03-04T16:26:33.410Z,101494.78
2023-03-04T16:29:00.537Z,101500.81
2023-03-04T16:31:27.362Z,101500.44
2023-03-04T16:33:54.200Z,101504.97
2023-03-04T16:36:27.425Z,101504.13
2023-03-04T16:39:02.550Z,101510.13
2023-03-04T16:41:33.224Z,101504.50
2023-03-04T16:44:00.877Z,101507.56
2023-03-04T16:46:28.077Z,101508.06
2023-03-04T16:48:55.198Z,101504.13
2023-03-04T16:51:23.259Z,101510.31
2023-03-04T16:54:00.289Z,101503.28
2023-03-04T16:56:27.433Z,101501.63
2023-03-04T16:58:54.490Z,101507.81
2023-03-04T17:01:26.853Z,101501.44
2023-03-04T17:03:54.970Z,101502.63
2023-03-04T17:06:23.351Z,101502.72
2023-03-04T17:08:51.067Z,101505.13
2023-03-04T17:11:20.820Z,101502.53
2023-03-04T17:13:48.016Z,101504.44
2023-03-04T17:16:15.561Z,101514.84
2023-03-04T17:18:42.925Z,101510.75
2023-03-04T17:21:13.727Z,101517.84
2023-03-04T17:23:40.626Z,101513.75
2023-03-04T17:26:07.673Z,101518.97
2023-03-04T17:28:34.427Z,101525.66
2023-03-04T17:31:01.713Z,101519.19
2023-03-04T17:33:28.458Z,101516.22
2023-03-04T17:35:56.879Z,101521.94
2023-03-04T17:38:23.683Z,101527.78
2023-03-04T17:40:50.490Z,101528.78
2023-03-04T17:43:17.253Z,101532.63
2023-03-04T17:45:44.468Z,101532.31
2023-03-04T17:48:15.426Z,101537.00
2023-03-04T17:50:52.098Z,101543.88
2023-03-04T17:53:20.150Z,101542.41
2023-03-04T17:55:50.969Z,101542.25
2023-03-04T17:58:17.778Z,101545.28
2023-03-04T18:00:44.736Z,101545.47
2023-03-04T18:03:15.093Z,101556.50
2023-03-04T18:08:42.662Z,101550.16
2023-03-04T18:11:10.381Z,101562.84
2023-03-04T18:13:41.960Z,101560.22
2023-03-04T18:16:09.334Z,101558.38
2023-03-04T18:18:36.736Z,101562.56
2023-03-04T18:21:04.712Z,101563.56
2023-03-04T18:23:32.443Z,101569.25
2023-03-04T18:25:59.230Z,101570.22
2023-03-04T18:28:26.177Z,101585.44
2023-03-04T18:30:55.043Z,101572.78
2023-03-04T18:33:21.989Z,101575.59
2023-03-04T18:35:49.109Z,101572.91
2023-03-04T18:38:16.289Z,101579.47
2023-03-04T18:40:44.318Z,101581.28
2023-03-04T18:43:11.140Z,101579.78
2023-03-04T18:45:37.983Z,101585.63
2023-03-04T18:48:05.380Z,101586.63
2023-03-04T18:50:32.161Z,101583.78
2023-03-04T18:52:58.946Z,101580.13
2023-03-04T18:55:27.615Z,101580.47
2023-03-04T18:57:57.892Z,101590.16
2023-03-04T19:00:25.444Z,101595.66
2023-03-04T19:02:58.778Z,101594.66
2023-03-04T19:05:30.069Z,101591.97
2023-03-04T19:07:57.595Z,101589.31
2023-03-04T19:10:25.509Z,101597.31
2023-03-04T19:12:52.818Z,101596.66
2023-03-04T19:15:20.185Z,101597.66
2023-03-04T19:17:46.935Z,101594.34
2023-03-04T19:20:15.180Z,101605.19
2023-03-04T19:22:45.433Z,101604.66
2023-03-04T19:25:12.985Z,101602.34
2023-03-04T19:27:41.108Z,101604.31
2023-03-04T19:30:08.787Z,101603.66
2023-03-04T19:32:36.279Z,101603.84
2023-03-04T19:35:03.117Z,101611.00
2023-03-04T19:37:30.125Z,101605.81
2023-03-04T19:39:56.956Z,101611.50
2023-03-04T19:42:24.332Z,101615.31
2023-03-04T19:44:51.593Z,101614.94
2023-03-04T19:47:18.517Z,101614.63
2023-03-04T19:49:45.474Z,101622.28
2023-03-04T19:52:12.335Z,101626.94
2023-03-04T19:54:39.125Z,101628.41
2023-03-04T19:57:05.910Z,101628.09
2023-03-04T19:59:32.706Z,101633.25
2023-03-04T20:02:01.291Z,101634.72
2023-03-04T20:04:28.426Z,101632.38
2023-03-04T20:06:55.438Z,101637.84
2023-03-04T20:09:22.762Z,101635.16
2023-03-04T20:11:59.097Z,101638.00
2023-03-04T20:14:31.944Z,101639.66
2023-03-04T20:17:03.549Z,101641.28
2023-03-04T20:19:31.881Z,101648.91
2023-03-04T20:21:58.637Z,101641.41
2023-03-04T20:24:26.283Z,101645.16
2023-03-04T20:26:53.424Z,101647.03
2023-03-04T20:29:20.227Z,101650.63
2023-03-04T20:31:47.114Z,101642.44
2023-03-04T20:34:17.538Z,101642.22
2023-03-04T20:36:44.435Z,101643.91
2023-03-04T20:39:25.846Z,101648.53
2023-03-04T20:41:55.124Z,101650.38
2023-03-04T20:44:21.944Z,101649.78
2023-03-04T20:46:48.765Z,101647.13
2023-03-04T20:49:24.512Z,101651.13
2023-03-04T20:51:52.588Z,101655.69
2023-03-04T20:54:19.902Z,101655.59
2023-03-04T20:56:48.671Z,101662.22
2023-03-04T20:59:16.137Z,101655.69
2023-03-04T21:01:44.799Z,101656.59
2023-03-04T21:04:11.781Z,101657.38
2023-03-04T21:06:39.554Z,101664.97
2023-03-04T21:09:13.114Z,101657.53
2023-03-04T21:11:41.320Z,101658.97
2023-03-04T21:14:22.104Z,101652.91
2023-03-04T21:16:51.226Z,101659.59
2023-03-04T21:19:20.755Z,101657.00
2023-03-04T21:21:49.660Z,101658.63
2023-03-04T21:24:19.440Z,101662.63
2023-03-04T21:26:47.788Z,101659.66
2023-03-04T21:29:16.744Z,101663.84
2023-03-04T21:31:50.223Z,101671.59
2023-03-04T21:34:24.366Z,101669.16
2023-03-04T21:36:51.785Z,101672.78
2023-03-04T21:39:21.573Z,101674.97
2023-03-04T21:41:48.902Z,101674.88
2023-03-04T21:44:27.961Z,101674.53
2023-03-04T21:47:00.769Z,101675.03
2023-03-04T21:49:27.869Z,101677.41
2023-03-04T21:51:54.711Z,101687.16
2023-03-04T21:54:22.183Z,101683.09
2023-03-04T21:56:50.293Z,101676.41
2023-03-04T21:59:20.088Z,101671.47
2023-03-04T22:01:47.170Z,101680.31
2023-03-04T22:04:14.029Z,101675.63
2023-03-04T22:06:41.486Z,101682.22
2023-03-04T22:09:08.467Z,101679.31
2023-03-04T22:11:35.248Z,101682.13
2023-03-04T22:14:03.069Z,101681.66
2023-03-04T22:16:35.404Z,101674.00
2023-03-04T22:19:04.849Z,101675.88
2023-03-04T22:21:31.610Z,101676.16
2023-03-04T22:23:58.438Z,101672.47
2023-03-04T22:26:31.582Z,101669.97
2023-03-04T22:29:01.989Z,101669.56
2023-03-04T22:31:34.651Z,101670.00
2023-03-04T22:34:07.055Z,101660.13
2023-03-04T22:36:49.567Z,101664.25
2023-03-04T22:39:29.602Z,101666.69
2023-03-04T22:42:18.479Z,101668.06
2023-03-04T22:45:01.577Z,101666.72
2023-03-04T22:48:06.510Z,101669.53
2023-03-04T22:50:46.595Z,101666.72
2023-03-04T22:53:33.508Z,101662.03
2023-03-04T22:56:15.637Z,101663.00
2023-03-04T22:59:02.491Z,101662.28
2023-03-04T23:01:43.712Z,101663.41
2023-03-04T23:04:30.435Z,101659.78
2023-03-04T23:07:10.548Z,101662.44
2023-03-04T23:10:04.448Z,101660.03
2023-03-04T23:12:51.578Z,101659.78
2023-03-04T23:15:31.514Z,101660.34
2023-03-04T23:18:20.576Z,101659.50
2023-03-04T23:21:00.559Z,101658.44
2023-03-04T23:23:47.585Z,101663.50
2023-03-04T23:26:32.460Z,101663.53
2023-03-04T23:29:21.580Z,101648.28
2023-03-04T23:32:01.499Z,101651.78
2023-03-04T23:34:53.229Z,101649.53
2023-03-04T23:37:32.484Z,101648.00
2023-03-04T23:40:19.568Z,101651.38
2023-03-04T23:43:02.503Z,101658.19
2023-03-04T23:45:50.652Z,101656.38
2023-03-04T23:48:30.428Z,101658.09
2023-03-04T23:51:19.606Z,101654.72
2023-03-04T23:53:59.491Z,101649.00
2023-03-04T23:56:46.546Z,101642.69
2023-03-04T23:59:26.437Z,101650.38
